createdAt,value
2023-05-10T00:01:27.381Z,12.70
2023-05-10T00:03:56.220Z,12.70
2023-05-10T00:06:25.308Z,12.70
2023-05-10T00:08:56.444Z,12.70
2023-05-10T00:11:26.600Z,12.70
2023-05-10T00:13:57.211Z,12.60
2023-05-10T00:16:27.943Z,12.70
2023-05-10T00:18:57.779Z,12.70
2023-05-10T00:21:29.074Z,12.60
2023-05-10T00:24:00.480Z,12.60
2023-05-10T00:26:30.580Z,12.70
2023-05-10T00:28:59.646Z,12.60
2023-05-10T00:31:28.451Z,12.60
2023-05-10T00:34:02.007Z,12.60
2023-05-10T00:36:30.591Z,12.60
2023-05-10T00:38:59.398Z,12.60
2023-05-10T00:41:28.078Z,12.60
2023-05-10T00:43:58.187Z,12.60
2023-05-10T00:46:27.970Z,12.70
2023-05-10T00:48:56.787Z,12.60
2023-05-10T00:51:25.740Z,12.70
2023-05-10T00:53:54.500Z,12.70
2023-05-10T00:56:24.255Z,12.70
2023-05-10T00:58:53.442Z,12.70
2023-05-10T01:01:23.986Z,12.70
2023-05-10T01:03:53.418Z,12.70
2023-05-10T01:06:22.115Z,12.70
2023-05-10T01:08:50.798Z,12.70
2023-05-10T01:11:19.717Z,12.70
2023-05-10T01:13:57.643Z,12.70
2023-05-10T01:16:29.994Z,12.70
2023-05-10T01:18:58.754Z,12.70
2023-05-10T01:21:39.709Z,12.70
2023-05-10T01:24:48.117Z,12.70
2023-05-10T01:28:01.835Z,12.70
2023-05-10T01:30:57.952Z,12.70
2023-05-10T01:33:31.940Z,12.70
2023-05-10T01:36:08.012Z,12.70
2023-05-10T01:38:48.200Z,12.70
2023-05-10T01:41:23.603Z,12.70
2023-05-10T01:44:12.507Z,12.70
2023-05-10T01:46:42.632Z,12.80
2023-05-10T01:49:20.372Z,12.80
2023-05-10T01:51:55.799Z,12.80
2023-05-10T01:54:25.954Z,12.80
2023-05-10T01:57:02.349Z,12.80
2023-05-10T01:59:37.465Z,12.80
2023-05-10T02:02:08.014Z,12.90
2023-05-10T02:04:43.108Z,12.90
2023-05-10T02:07:17.743Z,12.90
2023-05-10T02:09:49.714Z,12.90
2023-05-10T02:12:20.085Z,12.90
2023-05-10T02:14:49.869Z,12.90
2023-05-10T02:17:20.844Z,13.00
2023-05-10T02:19:51.898Z,13.00
2023-05-10T02:22:22.059Z,13.00
2023-05-10T02:24:52.879Z,13.00
2023-05-10T02:27:22.923Z,13.00
2023-05-10T02:29:56.342Z,13.00
2023-05-10T02:32:27.733Z,13.00
2023-05-10T02:34:59.280Z,13.00
2023-05-10T02:37:28.963Z,13.00
2023-05-10T02:39:59.155Z,13.00
2023-05-10T02:42:29.815Z,13.00
2023-05-10T02:45:02.885Z,13.00
2023-05-10T02:47:32.456Z,13.00
2023-05-10T02:50:02.699Z,13.00
2023-05-10T02:52:39.019Z,13.00
2023-05-10T02:55:10.673Z,13.00
2023-05-10T02:57:44.454Z,13.00
2023-05-10T03:00:15.425Z,13.00
2023-05-10T03:02:44.375Z,13.00
2023-05-10T03:05:17.054Z,13.00
2023-05-10T03:07:46.139Z,13.00
2023-05-10T03:10:15.260Z,13.00
2023-05-10T03:12:54.931Z,13.00
2023-05-10T03:15:33.396Z,13.00
2023-05-10T03:18:08.048Z,13.00
2023-05-10T03:20:41.995Z,13.00
2023-05-10T03:23:20.750Z,13.00
2023-05-10T03:25:51.271Z,13.00
2023-05-10T03:28:21.004Z,12.90
2023-05-10T03:30:53.055Z,13.00
2023-05-10T03:33:21.873Z,13.00
2023-05-10T03:35:52.152Z,13.00
2023-05-10T03:38:25.270Z,13.00
2023-05-10T03:40:54.340Z,13.00
2023-05-10T03:43:23.094Z,13.00
2023-05-10T03:45:51.845Z,13.00
2023-05-10T03:48:20.526Z,13.00
2023-05-10T03:50:50.336Z,13.00
2023-05-10T03:53:20.476Z,13.00
2023-05-10T03:55:49.269Z,13.00
2023-05-10T03:58:18.025Z,13.00
2023-05-10T04:00:46.825Z,13.00
2023-05-10T04:03:16.307Z,13.00
2023-05-10T04:05:45.119Z,13.00
2023-05-10T04:08:13.776Z,13.00
2023-05-10T04:10:43.804Z,12.90
2023-05-10T04:13:12.591Z,13.00
2023-05-10T04:15:41.268Z,13.00
2023-05-10T04:18:09.999Z,12.90
2023-05-10T04:20:38.602Z,12.90
2023-05-10T04:23:07.284Z,12.90
2023-05-10T04:25:37.267Z,12.90
2023-05-10T04:28:07.563Z,13.00
2023-05-10T04:30:36.307Z,13.00
2023-05-10T04:33:05.555Z,13.00
2023-05-10T04:35:35.176Z,13.00
2023-05-10T04:38:03.924Z,12.90
2023-05-10T04:40:32.596Z,12.90
2023-05-10T04:43:01.341Z,12.90
2023-05-10T04:45:31.573Z,12.90
2023-05-10T04:48:00.256Z,12.90
2023-05-10T04:50:29.005Z,12.90
2023-05-10T04:52:57.770Z,12.90
2023-05-10T04:55:27.535Z,12.80
2023-05-10T04:57:58.227Z,12.80
2023-05-10T05:00:26.959Z,12.80
2023-05-10T05:02:57.145Z,12.80
2023-05-10T05:05:25.903Z,12.80
2023-05-10T05:07:57.691Z,12.80
2023-05-10T05:10:26.312Z,12.80
2023-05-10T05:12:55.087Z,12.80
2023-05-10T05:15:26.269Z,12.80
2023-05-10T05:17:59.111Z,12.70
2023-05-10T05:20:27.826Z,12.80
2023-05-10T05:22:56.555Z,12.70
2023-05-10T05:25:25.433Z,12.70
2023-05-10T05:27:54.158Z,12.80
2023-05-10T05:30:22.936Z,12.80
2023-05-10T05:32:51.664Z,12.80
2023-05-10T05:35:21.896Z,12.80
2023-05-10T05:37:50.515Z,12.80
2023-05-10T05:40:19.148Z,12.90
2023-05-10T05:42:47.842Z,13.00
2023-05-10T05:45:17.075Z,13.00
2023-05-10T05:47:45.994Z,13.00
2023-05-10T05:50:14.862Z,13.00
2023-05-10T05:52:44.996Z,13.00
2023-05-10T05:55:13.810Z,13.10
2023-05-10T05:57:42.549Z,13.10
2023-05-10T06:00:11.947Z,13.20
2023-05-10T06:02:40.846Z,13.20
2023-05-10T06:05:10.740Z,13.20
2023-05-10T06:07:39.501Z,13.20
2023-05-10T06:10:10.241Z,13.30
2023-05-10T06:12:39.003Z,13.30
2023-05-10T06:15:08.738Z,13.30
2023-05-10T06:17:37.440Z,13.30
2023-05-10T06:20:07.156Z,13.20
2023-05-10T06:22:35.810Z,13.20
2023-05-10T06:25:04.507Z,13.20
2023-05-10T06:27:34.629Z,13.20
2023-05-10T06:30:12.290Z,13.20
2023-05-10T06:32:44.907Z,13.20
2023-05-10T06:35:13.681Z,13.30
2023-05-10T06:37:42.360Z,13.30
2023-05-10T06:40:11.959Z,13.40
2023-05-10T06:42:41.974Z,13.50
2023-05-10T06:45:11.696Z,13.60
2023-05-10T06:47:40.355Z,13.70
2023-05-10T06:50:10.356Z,13.80
2023-05-10T06:52:39.273Z,13.80
2023-05-10T06:55:09.535Z,13.80
2023-05-10T06:57:38.296Z,13.70
2023-05-10T07:00:10.723Z,13.70
2023-05-10T07:02:39.535Z,13.60
2023-05-10T07:05:08.722Z,13.40
2023-05-10T07:07:37.415Z,13.30
2023-05-10T07:10:06.919Z,13.20
2023-05-10T07:12:35.672Z,13.20
2023-05-10T07:15:04.726Z,13.20
2023-05-10T07:17:35.587Z,13.20
2023-05-10T07:20:04.664Z,13.20
2023-05-10T07:22:33.289Z,13.20
2023-05-10T07:25:01.928Z,13.20
2023-05-10T07:27:30.612Z,13.20
2023-05-10T07:29:59.734Z,13.10
2023-05-10T07:32:28.531Z,13.20
2023-05-10T07:34:58.649Z,13.10
2023-05-10T07:37:27.310Z,13.10
2023-05-10T07:39:57.128Z,13.10
2023-05-10T07:42:25.782Z,13.30
2023-05-10T07:44:54.402Z,13.50
2023-05-10T07:47:23.039Z,13.50
2023-05-10T07:49:52.002Z,13.70
2023-05-10T07:52:22.814Z,13.90
2023-05-10T07:54:51.574Z,14.20
2023-05-10T07:57:20.479Z,14.60
2023-05-10T07:59:49.117Z,14.70
2023-05-10T08:02:17.727Z,14.80
2023-05-10T08:04:46.555Z,15.00
2023-05-10T08:07:15.316Z,15.10
2023-05-10T08:09:45.384Z,15.40
2023-05-10T08:12:13.992Z,15.20
2023-05-10T08:14:42.628Z,15.40
2023-05-10T08:17:11.234Z,15.50
2023-05-10T08:19:39.832Z,15.40
2023-05-10T08:22:08.588Z,15.20
2023-05-10T08:24:39.458Z,15.00
2023-05-10T08:27:10.901Z,14.90
2023-05-10T08:29:49.585Z,14.80
2023-05-10T08:32:18.999Z,14.80
2023-05-10T08:34:47.708Z,14.90
2023-05-10T08:37:16.412Z,15.00
2023-05-10T08:39:46.272Z,14.90
2023-05-10T08:42:21.627Z,14.80
2023-05-10T08:44:51.209Z,14.80
2023-05-10T08:47:20.911Z,14.80
2023-05-10T08:49:52.181Z,14.70
2023-05-10T08:52:20.931Z,14.60
2023-05-10T08:54:50.398Z,14.70
2023-05-10T08:57:22.030Z,14.60
2023-05-10T08:59:50.886Z,14.50
2023-05-10T09:02:22.277Z,14.40
2023-05-10T09:04:51.074Z,14.30
2023-05-10T09:07:20.745Z,14.30
2023-05-10T09:09:50.828Z,14.40
2023-05-10T09:12:20.864Z,14.40
2023-05-10T09:14:50.007Z,14.10
2023-05-10T09:17:18.981Z,14.10
2023-05-10T09:19:48.134Z,14.20
2023-05-10T09:22:16.886Z,14.20
2023-05-10T09:24:46.357Z,14.10
2023-05-10T09:27:15.114Z,14.00
2023-05-10T09:29:46.155Z,14.00
2023-05-10T09:32:15.979Z,14.00
2023-05-10T09:34:44.557Z,13.90
2023-05-10T09:37:13.142Z,13.90
2023-05-10T09:39:42.369Z,13.90
2023-05-10T09:42:12.038Z,13.90
2023-05-10T09:44:41.973Z,14.30
2023-05-10T09:47:11.967Z,14.50
2023-05-10T09:49:40.567Z,14.90
2023-05-10T09:52:10.121Z,15.20
2023-05-10T09:54:38.689Z,15.10
2023-05-10T09:57:07.494Z,15.30
2023-05-10T09:59:37.300Z,15.20
2023-05-10T10:02:06.432Z,15.00
2023-05-10T10:04:41.826Z,15.20
2023-05-10T10:07:11.061Z,15.30
2023-05-10T10:09:40.645Z,15.40
2023-05-10T10:12:09.715Z,15.50
2023-05-10T10:14:38.483Z,15.60
2023-05-10T10:17:08.730Z,15.60
2023-05-10T10:19:39.156Z,15.70
2023-05-10T10:22:08.231Z,15.70
2023-05-10T10:24:36.882Z,15.70
2023-05-10T10:27:15.190Z,15.70
2023-05-10T10:29:51.996Z,15.90
2023-05-10T10:32:28.131Z,16.10
2023-05-10T10:34:58.569Z,16.00
2023-05-10T10:37:45.211Z,16.00
2023-05-10T10:40:27.850Z,16.10
2023-05-10T10:42:56.872Z,16.30
2023-05-10T10:45:27.373Z,16.20
2023-05-10T10:48:24.166Z,16.00
2023-05-10T10:50:59.945Z,16.10
2023-05-10T10:53:30.162Z,16.00
2023-05-10T10:56:10.308Z,15.90
2023-05-10T10:58:40.232Z,15.80
2023-05-10T11:01:14.114Z,15.90
2023-05-10T11:03:43.793Z,15.80
2023-05-10T11:06:14.384Z,15.90
2023-05-10T11:08:46.098Z,15.80
2023-05-10T11:11:17.090Z,16.10
2023-05-10T11:13:50.811Z,16.50
2023-05-10T11:16:21.502Z,16.70
2023-05-10T11:19:03.328Z,16.60
2023-05-10T11:21:34.661Z,16.80
2023-05-10T11:24:14.582Z,16.80
2023-05-10T11:26:44.291Z,16.70
2023-05-10T11:29:15.203Z,16.70
2023-05-10T11:31:47.802Z,16.90
2023-05-10T11:34:26.824Z,17.20
2023-05-10T11:37:00.211Z,17.60
2023-05-10T11:39:29.764Z,17.80
2023-05-10T11:41:58.857Z,18.10
2023-05-10T11:44:32.484Z,17.90
2023-05-10T11:47:01.869Z,17.90
2023-05-10T11:49:30.521Z,18.10
2023-05-10T11:52:08.405Z,18.10
2023-05-10T11:54:37.190Z,18.20
2023-05-10T11:57:06.042Z,18.30
2023-05-10T11:59:34.644Z,18.30
2023-05-10T12:02:04.322Z,18.60
2023-05-10T12:04:33.670Z,18.70
2023-05-10T12:07:02.624Z,18.80
2023-05-10T12:09:43.351Z,18.80
2023-05-10T12:12:12.713Z,18.80
2023-05-10T12:14:41.388Z,18.80
2023-05-10T12:17:14.449Z,18.70
2023-05-10T12:19:44.944Z,18.70
2023-05-10T12:22:13.762Z,18.60
2023-05-10T12:24:44.098Z,18.30
2023-05-10T12:27:13.475Z,17.70
2023-05-10T12:29:45.572Z,17.70
2023-05-10T12:32:14.346Z,17.80
2023-05-10T12:34:43.245Z,17.80
2023-05-10T12:37:11.895Z,17.80
2023-05-10T12:39:43.633Z,17.70
2023-05-10T12:42:12.830Z,17.60
2023-05-10T12:44:41.603Z,17.70
2023-05-10T12:47:10.335Z,17.80
2023-05-10T12:49:39.041Z,17.80
2023-05-10T12:52:07.797Z,17.80
2023-05-10T12:54:37.050Z,17.90
2023-05-10T12:57:07.113Z,17.90
2023-05-10T12:59:38.210Z,17.70
2023-05-10T13:02:07.076Z,17.70
2023-05-10T13:04:35.813Z,17.80
2023-05-10T13:07:04.676Z,18.00
2023-05-10T13:09:33.398Z,18.10
2023-05-10T13:12:02.050Z,17.70
2023-05-10T13:14:32.211Z,17.40
2023-05-10T13:17:00.901Z,17.40
2023-05-10T13:19:29.568Z,17.50
2023-05-10T13:21:58.211Z,17.70
2023-05-10T13:24:27.391Z,18.00
2023-05-10T13:26:56.037Z,17.90
2023-05-10T13:29:24.959Z,17.90
2023-05-10T13:31:55.129Z,18.00
2023-05-10T13:34:23.874Z,18.20
2023-05-10T13:36:53.974Z,18.40
2023-05-10T13:39:22.735Z,18.10
2023-05-10T13:41:52.339Z,18.00
2023-05-10T13:44:23.231Z,18.00
2023-05-10T13:46:52.126Z,17.80
2023-05-10T13:49:22.617Z,18.00
2023-05-10T13:51:52.003Z,18.20
2023-05-10T13:54:20.961Z,18.60
2023-05-10T13:56:49.909Z,18.70
2023-05-10T13:59:18.515Z,18.80
2023-05-10T14:01:47.299Z,18.80
2023-05-10T14:04:15.973Z,18.60
2023-05-10T14:06:45.960Z,18.50
2023-05-10T14:09:14.868Z,18.70
2023-05-10T14:11:44.296Z,18.90
2023-05-10T14:14:13.686Z,19.00
2023-05-10T14:16:44.958Z,19.10
2023-05-10T14:19:13.788Z,19.30
2023-05-10T14:21:42.362Z,19.20
2023-05-10T14:24:12.959Z,19.00
2023-05-10T14:26:41.541Z,19.20
2023-05-10T14:29:12.421Z,19.10
2023-05-10T14:31:42.918Z,19.30
2023-05-10T14:34:11.571Z,19.10
2023-05-10T14:36:40.617Z,19.20
2023-05-10T14:39:11.012Z,19.00
2023-05-10T14:41:43.997Z,19.10
2023-05-10T14:44:12.969Z,20.00
2023-05-10T14:46:41.768Z,20.30
2023-05-10T14:49:10.669Z,20.40
2023-05-10T14:51:41.075Z,20.40
2023-05-10T14:54:12.325Z,20.20
2023-05-10T14:56:42.624Z,20.00
2023-05-10T14:59:11.558Z,20.00
2023-05-10T15:01:43.097Z,19.80
2023-05-10T15:04:14.571Z,19.30
2023-05-10T15:06:43.800Z,18.80
2023-05-10T15:09:12.395Z,18.60
2023-05-10T15:11:42.556Z,18.40
2023-05-10T15:14:11.331Z,18.10
2023-05-10T15:16:40.069Z,17.80
2023-05-10T15:19:11.679Z,17.50
2023-05-10T15:21:43.324Z,17.40
2023-05-10T15:24:12.082Z,17.10
2023-05-10T15:26:42.827Z,16.80
2023-05-10T15:29:11.549Z,16.50
2023-05-10T15:31:59.834Z,16.20
2023-05-10T15:34:31.979Z,15.90
2023-05-10T15:37:02.235Z,15.80
2023-05-10T15:39:31.010Z,15.70
2023-05-10T15:42:02.343Z,15.50
2023-05-10T15:44:31.089Z,15.20
2023-05-10T15:46:59.900Z,15.10
2023-05-10T15:49:28.754Z,14.90
2023-05-10T15:51:57.451Z,14.60
2023-05-10T15:54:26.241Z,14.40
2023-05-10T15:56:55.233Z,14.40
2023-05-10T15:59:26.026Z,14.40
2023-05-10T16:01:55.039Z,14.50
2023-05-10T16:04:24.707Z,14.40
2023-05-10T16:06:56.167Z,14.50
2023-05-10T16:09:25.064Z,14.40
2023-05-10T16:11:53.910Z,14.50
2023-05-10T16:14:24.793Z,14.50
2023-05-10T16:16:53.867Z,14.70
2023-05-10T16:19:22.932Z,14.80
2023-05-10T16:21:51.726Z,14.80
2023-05-10T16:24:20.360Z,14.90
2023-05-10T16:26:49.085Z,15.10
2023-05-10T16:29:17.762Z,15.00
2023-05-10T16:31:47.791Z,15.20
2023-05-10T16:34:16.600Z,15.40
2023-05-10T16:36:45.261Z,15.60
2023-05-10T16:39:13.977Z,15.70
2023-05-10T16:41:42.641Z,15.90
2023-05-10T16:44:11.358Z,16.30
2023-05-10T16:46:40.761Z,16.90
2023-05-10T16:49:12.349Z,17.20
2023-05-10T16:51:41.349Z,17.00
2023-05-10T16:54:09.963Z,16.70
2023-05-10T16:56:38.634Z,16.40
2023-05-10T16:59:07.292Z,16.40
2023-05-10T17:01:36.064Z,16.20
2023-05-10T17:04:04.935Z,16.10
2023-05-10T17:06:36.840Z,16.10
2023-05-10T17:09:08.181Z,16.00
2023-05-10T17:11:36.873Z,16.00
2023-05-10T17:14:05.648Z,16.00
2023-05-10T17:16:34.444Z,15.90
2023-05-10T17:19:03.299Z,15.90
2023-05-10T17:21:32.104Z,15.90
2023-05-10T17:24:02.162Z,16.60
2023-05-10T17:26:30.960Z,16.60
2023-05-10T17:29:00.110Z,16.40
2023-05-10T17:31:29.875Z,16.20
2023-05-10T17:33:58.674Z,15.90
2023-05-10T17:36:28.353Z,15.80
2023-05-10T17:38:57.125Z,15.70
2023-05-10T17:41:27.341Z,15.50
2023-05-10T17:43:56.196Z,15.50
2023-05-10T17:46:25.311Z,15.50
2023-05-10T17:48:54.326Z,15.50
2023-05-10T17:51:23.005Z,15.50
2023-05-10T17:53:51.830Z,15.50
2023-05-10T17:56:22.327Z,15.40
2023-05-10T17:58:56.159Z,15.40
2023-05-10T18:01:25.322Z,15.30
2023-05-10T18:03:54.095Z,15.20
2023-05-10T18:06:25.144Z,15.20
2023-05-10T18:08:58.928Z,15.20
2023-05-10T18:11:29.734Z,15.20
2023-05-10T18:13:59.889Z,15.10
2023-05-10T18:16:28.588Z,15.00
2023-05-10T18:18:57.362Z,14.90
2023-05-10T18:21:26.132Z,14.90
2023-05-10T18:23:55.022Z,14.90
2023-05-10T18:26:24.008Z,14.90
2023-05-10T18:28:52.796Z,14.90
2023-05-10T18:31:23.523Z,14.90
2023-05-10T18:33:52.364Z,14.90
2023-05-10T18:36:21.498Z,14.80
2023-05-10T18:38:50.433Z,14.80
2023-05-10T18:41:21.517Z,14.90
2023-05-10T18:43:50.300Z,14.80
2023-05-10T18:46:19.168Z,14.80
2023-05-10T18:48:49.351Z,14.80
2023-05-10T18:51:18.234Z,14.70
2023-05-10T18:53:46.863Z,14.70
2023-05-10T18:56:15.924Z,14.60
2023-05-10T18:58:45.579Z,14.60
2023-05-10T19:01:14.351Z,14.50
2023-05-10T19:03:43.148Z,14.30
2023-05-10T19:06:13.169Z,14.10
2023-05-10T19:08:42.033Z,13.90
2023-05-10T19:11:12.224Z,13.80
2023-05-10T19:13:40.958Z,13.80
2023-05-10T19:16:16.882Z,13.80
2023-05-10T19:18:46.761Z,13.80
2023-05-10T19:21:17.402Z,13.80
2023-05-10T19:23:46.085Z,13.60
2023-05-10T19:26:14.746Z,13.50
2023-05-10T19:28:43.640Z,13.50
2023-05-10T19:31:12.542Z,13.50
2023-05-10T19:33:41.495Z,13.50
2023-05-10T19:36:12.034Z,13.60
2023-05-10T19:38:42.331Z,13.70
2023-05-10T19:41:11.734Z,13.70
2023-05-10T19:43:41.823Z,13.80
2023-05-10T19:46:10.749Z,13.80
2023-05-10T19:48:39.648Z,13.90
2023-05-10T19:51:10.283Z,13.90
2023-05-10T19:53:41.399Z,13.90
2023-05-10T19:56:12.702Z,13.80
2023-05-10T19:58:41.914Z,13.80
2023-05-10T20:01:10.660Z,13.80
2023-05-10T20:03:39.382Z,13.70
2023-05-10T20:06:08.093Z,13.70
2023-05-10T20:08:39.202Z,13.60
2023-05-10T20:11:07.861Z,13.60
2023-05-10T20:13:38.100Z,13.60
2023-05-10T20:16:07.213Z,13.60
2023-05-10T20:18:37.399Z,13.70
2023-05-10T20:21:06.630Z,13.70
2023-05-10T20:23:35.376Z,13.80
2023-05-10T20:26:04.159Z,13.80
2023-05-10T20:28:32.996Z,13.80
2023-05-10T20:31:03.458Z,13.80
2023-05-10T20:33:32.426Z,13.80
2023-05-10T20:36:01.311Z,13.80
2023-05-10T20:38:33.027Z,13.70
2023-05-10T20:41:02.635Z,13.80
2023-05-10T20:43:31.402Z,13.80
2023-05-10T20:46:07.317Z,13.70
2023-05-10T20:48:40.454Z,13.70
2023-05-10T20:51:09.360Z,13.70
2023-05-10T20:53:38.014Z,13.70
2023-05-10T20:56:07.126Z,13.60
2023-05-10T20:58:36.152Z,13.60
2023-05-10T21:01:04.889Z,13.50
2023-05-10T21:03:33.793Z,13.60
2023-05-10T21:06:03.863Z,13.60
2023-05-10T21:08:32.686Z,13.60
2023-05-10T21:11:04.819Z,13.70
2023-05-10T21:13:36.610Z,13.70
2023-05-10T21:16:06.131Z,13.70
2023-05-10T21:18:34.825Z,13.80
2023-05-10T21:21:05.025Z,13.80
2023-05-10T21:23:34.652Z,13.80
2023-05-10T21:26:04.532Z,13.80
2023-05-10T21:28:33.311Z,13.70
2023-05-10T21:31:02.016Z,13.70
2023-05-10T21:33:30.696Z,13.70
2023-05-10T21:35:59.436Z,13.70
2023-05-10T21:38:30.260Z,13.60
2023-05-10T21:40:59.213Z,13.60
2023-05-10T21:43:27.906Z,13.60
2023-05-10T21:45:56.563Z,13.50
2023-05-10T21:48:25.638Z,13.50
2023-05-10T21:50:54.465Z,13.40
2023-05-10T21:53:23.310Z,13.40
2023-05-10T21:55:55.253Z,13.20
2023-05-10T21:58:24.241Z,13.10
2023-05-10T22:00:53.217Z,13.10
2023-05-10T22:03:22.136Z,13.10
2023-05-10T22:05:51.121Z,13.10
2023-05-10T22:08:19.832Z,13.00
2023-05-10T22:10:48.547Z,13.00
2023-05-10T22:13:18.569Z,12.90
2023-05-10T22:15:47.279Z,12.90
2023-05-10T22:18:16.050Z,13.00
2023-05-10T22:20:46.525Z,13.00
2023-05-10T22:23:15.419Z,13.10
2023-05-10T22:25:44.168Z,13.10
2023-05-10T22:28:15.350Z,13.10
2023-05-10T22:30:45.703Z,13.10
2023-05-10T22:33:16.603Z,13.10
2023-05-10T22:35:45.330Z,13.20
2023-05-10T22:38:14.179Z,13.10
2023-05-10T22:40:43.414Z,13.10
2023-05-10T22:43:14.944Z,13.10
2023-05-10T22:45:45.108Z,13.10
2023-05-10T22:48:15.685Z,13.10
2023-05-10T22:50:44.512Z,13.10
2023-05-10T22:53:13.291Z,13.10
2023-05-10T22:55:42.329Z,13.10
2023-05-10T22:58:11.198Z,13.10
2023-05-10T23:00:40.317Z,13.10
2023-05-10T23:03:10.593Z,13.10
2023-05-10T23:05:39.224Z,13.10
2023-05-10T23:08:07.966Z,13.00
2023-05-10T23:10:37.983Z,13.00
2023-05-10T23:13:07.816Z,13.00
2023-05-10T23:15:36.681Z,12.90
2023-05-10T23:18:06.103Z,13.00
2023-05-10T23:20:36.498Z,13.00
2023-05-10T23:23:10.848Z,13.00
2023-05-10T23:25:41.488Z,13.00
2023-05-10T23:28:10.426Z,13.00
2023-05-10T23:30:40.808Z,12.90
2023-05-10T23:33:09.755Z,13.00
2023-05-10T23:35:40.121Z,13.00
2023-05-10T23:38:08.824Z,13.00
2023-05-10T23:40:37.480Z,13.00
2023-05-10T23:43:06.250Z,12.90
2023-05-10T23:45:35.371Z,13.00
2023-05-10T23:48:07.104Z,12.80
2023-05-10T23:50:37.176Z,12.80
2023-05-10T23:53:09.594Z,12.70
2023-05-10T23:55:38.231Z,12.70
2023-05-10T23:58:07.290Z,12.70
